sensor_id;sensor_type;location;lat;lon;timestamp;P1;durP1;ratioP1;P2;durP2;ratioP2
9374;SDS011;4727;51.202;6.344;2022-08-19T00:00:00;16.20;;;15.00;;
9374;SDS011;4727;51.202;6.344;2022-08-19T00:02:28;17.73;;;16.27;;
9374;SDS011;4727;51.202;6.344;2022-08-19T00:04:54;18.07;;;16.57;;
9374;SDS011;4727;51.202;6.344;2022-08-19T00:07:20;17.73;;;16.23;;
9374;SDS011;4727;51.202;6.344;2022-08-19T00:09:45;19.37;;;17.73;;
9374;SDS011;4727;51.202;6.344;2022-08-19T00:12:11;18.17;;;16.57;;
9374;SDS011;4727;51.202;6.344;2022-08-19T00:14:37;18.27;;;15.70;;
9374;SDS011;4727;51.202;6.344;2022-08-19T00:17:03;18.50;;;17.13;;
9374;SDS011;4727;51.202;6.344;2022-08-19T00:19:31;19.90;;;18.20;;
9374;SDS011;4727;51.202;6.344;2022-08-19T00:21:57;20.73;;;18.83;;
9374;SDS011;4727;51.202;6.344;2022-08-19T00:24:23;22.23;;;20.17;;
9374;SDS011;4727;51.202;6.344;2022-08-19T00:26:50;19.00;;;17.47;;
9374;SDS011;4727;51.202;6.344;2022-08-19T00:29:18;17.90;;;16.60;;
9374;SDS011;4727;51.202;6.344;2022-08-19T00:31:48;18.43;;;16.97;;
9374;SDS011;4727;51.202;6.344;2022-08-19T00:34:18;19.50;;;17.90;;
9374;SDS011;4727;51.202;6.344;2022-08-19T00:36:44;19.37;;;17.87;;
9374;SDS011;4727;51.202;6.344;2022-08-19T00:39:10;20.33;;;18.57;;
9374;SDS011;4727;51.202;6.344;2022-08-19T00:41:37;21.27;;;19.47;;
9374;SDS011;4727;51.202;6.344;2022-08-19T00:44:07;21.50;;;19.70;;
9374;SDS011;4727;51.202;6.344;2022-08-19T00:46:42;21.43;;;19.63;;
9374;SDS011;4727;51.202;6.344;2022-08-19T00:49:11;21.07;;;19.27;;
9374;SDS011;4727;51.202;6.344;2022-08-19T00:52:05;20.93;;;19.00;;
9374;SDS011;4727;51.202;6.344;2022-08-19T00:54:34;22.43;;;20.47;;
9374;SDS011;4727;51.202;6.344;2022-08-19T00:57:02;21.73;;;19.93;;
9374;SDS011;4727;51.202;6.344;2022-08-19T00:59:31;22.17;;;20.27;;
9374;SDS011;4727;51.202;6.344;2022-08-19T01:01:58;20.60;;;18.80;;
9374;SDS011;4727;51.202;6.344;2022-08-19T01:04:24;22.13;;;20.13;;
9374;SDS011;4727;51.202;6.344;2022-08-19T01:06:49;22.07;;;20.37;;
9374;SDS011;4727;51.202;6.344;2022-08-19T01:09:15;24.13;;;22.23;;
9374;SDS011;4727;51.202;6.344;2022-08-19T01:11:41;24.33;;;22.17;;
9374;SDS011;4727;51.202;6.344;2022-08-19T01:14:09;25.70;;;23.43;;
9374;SDS011;4727;51.202;6.344;2022-08-19T01:16:35;26.20;;;23.90;;
9374;SDS011;4727;51.202;6.344;2022-08-19T01:19:03;28.87;;;26.30;;
9374;SDS011;4727;51.202;6.344;2022-08-19T01:21:42;31.57;;;28.87;;
9374;SDS011;4727;51.202;6.344;2022-08-19T01:24:13;31.00;;;28.20;;
9374;SDS011;4727;51.202;6.344;2022-08-19T01:26:40;33.07;;;29.87;;
9374;SDS011;4727;51.202;6.344;2022-08-19T01:29:08;31.53;;;28.73;;
9374;SDS011;4727;51.202;6.344;2022-08-19T01:31:34;30.27;;;27.40;;
9374;SDS011;4727;51.202;6.344;2022-08-19T01:34:02;28.37;;;25.77;;
9374;SDS011;4727;51.202;6.344;2022-08-19T01:36:29;27.50;;;25.03;;
9374;SDS011;4727;51.202;6.344;2022-08-19T01:38:57;28.50;;;25.90;;
9374;SDS011;4727;51.202;6.344;2022-08-19T01:41:25;27.90;;;25.40;;
9374;SDS011;4727;51.202;6.344;2022-08-19T01:43:51;27.53;;;25.03;;
9374;SDS011;4727;51.202;6.344;2022-08-19T01:46:18;28.13;;;25.43;;
9374;SDS011;4727;51.202;6.344;2022-08-19T01:48:44;26.57;;;24.37;;
9374;SDS011;4727;51.202;6.344;2022-08-19T01:51:11;28.90;;;26.43;;
9374;SDS011;4727;51.202;6.344;2022-08-19T01:53:37;31.13;;;28.30;;
9374;SDS011;4727;51.202;6.344;2022-08-19T01:56:04;30.40;;;27.80;;
9374;SDS011;4727;51.202;6.344;2022-08-19T01:58:32;29.10;;;26.50;;
9374;SDS011;4727;51.202;6.344;2022-08-19T02:01:03;29.27;;;26.77;;
9374;SDS011;4727;51.202;6.344;2022-08-19T02:03:30;31.80;;;28.97;;
9374;SDS011;4727;51.202;6.344;2022-08-19T02:05:56;34.80;;;31.60;;
9374;SDS011;4727;51.202;6.344;2022-08-19T02:08:24;33.67;;;30.27;;
9374;SDS011;4727;51.202;6.344;2022-08-19T02:10:52;38.90;;;35.30;;
9374;SDS011;4727;51.202;6.344;2022-08-19T02:13:18;38.67;;;35.07;;
9374;SDS011;4727;51.202;6.344;2022-08-19T02:15:44;43.17;;;38.80;;
9374;SDS011;4727;51.202;6.344;2022-08-19T02:18:10;41.00;;;36.97;;
9374;SDS011;4727;51.202;6.344;2022-08-19T02:20:38;39.33;;;35.67;;
9374;SDS011;4727;51.202;6.344;2022-08-19T02:23:04;40.93;;;36.83;;
9374;SDS011;4727;51.202;6.344;2022-08-19T02:25:30;41.73;;;37.60;;
9374;SDS011;4727;51.202;6.344;2022-08-19T02:27:56;43.43;;;38.87;;
9374;SDS011;4727;51.202;6.344;2022-08-19T02:30:22;43.57;;;39.33;;
9374;SDS011;4727;51.202;6.344;2022-08-19T02:32:49;42.70;;;38.63;;
9374;SDS011;4727;51.202;6.344;2022-08-19T02:35:15;43.93;;;39.73;;
9374;SDS011;4727;51.202;6.344;2022-08-19T02:37:41;43.87;;;39.53;;
9374;SDS011;4727;51.202;6.344;2022-08-19T02:40:26;45.87;;;41.43;;
9374;SDS011;4727;51.202;6.344;2022-08-19T02:42:52;45.23;;;40.87;;
9374;SDS011;4727;51.202;6.344;2022-08-19T02:45:18;47.23;;;42.43;;
9374;SDS011;4727;51.202;6.344;2022-08-19T02:47:44;48.43;;;43.33;;
9374;SDS011;4727;51.202;6.344;2022-08-19T02:50:09;50.17;;;45.23;;
9374;SDS011;4727;51.202;6.344;2022-08-19T02:52:35;50.27;;;45.20;;
9374;SDS011;4727;51.202;6.344;2022-08-19T02:55:01;52.27;;;46.97;;
9374;SDS011;4727;51.202;6.344;2022-08-19T02:57:27;53.10;;;47.70;;
9374;SDS011;4727;51.202;6.344;2022-08-19T02:59:56;50.70;;;45.60;;
9374;SDS011;4727;51.202;6.344;2022-08-19T03:02:21;53.07;;;47.37;;
9374;SDS011;4727;51.202;6.344;2022-08-19T03:04:47;54.77;;;49.10;;
9374;SDS011;4727;51.202;6.344;2022-08-19T03:07:13;55.00;;;49.37;;
9374;SDS011;4727;51.202;6.344;2022-08-19T03:09:40;55.43;;;49.83;;
9374;SDS011;4727;51.202;6.344;2022-08-19T03:12:09;55.03;;;49.23;;
9374;SDS011;4727;51.202;6.344;2022-08-19T03:14:34;54.83;;;49.13;;
9374;SDS011;4727;51.202;6.344;2022-08-19T03:17:01;54.43;;;48.77;;
9374;SDS011;4727;51.202;6.344;2022-08-19T03:19:29;57.67;;;51.50;;
9374;SDS011;4727;51.202;6.344;2022-08-19T03:21:54;58.50;;;52.30;;
9374;SDS011;4727;51.202;6.344;2022-08-19T03:24:20;61.33;;;54.93;;
9374;SDS011;4727;51.202;6.344;2022-08-19T03:26:51;59.70;;;53.10;;
9374;SDS011;4727;51.202;6.344;2022-08-19T03:29:22;61.53;;;55.00;;
9374;SDS011;4727;51.202;6.344;2022-08-19T03:31:48;64.40;;;55.40;;
9374;SDS011;4727;51.202;6.344;2022-08-19T03:34:17;61.90;;;54.77;;
9374;SDS011;4727;51.202;6.344;2022-08-19T03:36:46;61.17;;;54.73;;
9374;SDS011;4727;51.202;6.344;2022-08-19T03:39:12;63.33;;;55.30;;
9374;SDS011;4727;51.202;6.344;2022-08-19T03:41:39;60.03;;;53.53;;
9374;SDS011;4727;51.202;6.344;2022-08-19T03:44:07;64.17;;;54.60;;
9374;SDS011;4727;51.202;6.344;2022-08-19T03:46:33;63.07;;;52.30;;
9374;SDS011;4727;51.202;6.344;2022-08-19T03:49:00;64.50;;;55.30;;
9374;SDS011;4727;51.202;6.344;2022-08-19T03:51:32;66.17;;;58.00;;
9374;SDS011;4727;51.202;6.344;2022-08-19T03:54:00;72.40;;;60.60;;
9374;SDS011;4727;51.202;6.344;2022-08-19T03:56:28;73.13;;;59.43;;
9374;SDS011;4727;51.202;6.344;2022-08-19T03:58:55;68.07;;;57.63;;
9374;SDS011;4727;51.202;6.344;2022-08-19T04:01:22;76.90;;;61.10;;
9374;SDS011;4727;51.202;6.344;2022-08-19T04:03:51;74.53;;;60.47;;
9374;SDS011;4727;51.202;6.344;2022-08-19T04:06:22;73.67;;;60.50;;
9374;SDS011;4727;51.202;6.344;2022-08-19T04:08:51;71.20;;;58.97;;
9374;SDS011;4727;51.202;6.344;2022-08-19T04:11:19;74.77;;;60.57;;
9374;SDS011;4727;51.202;6.344;2022-08-19T04:13:47;80.63;;;61.57;;
9374;SDS011;4727;51.202;6.344;2022-08-19T04:16:13;78.73;;;60.27;;
9374;SDS011;4727;51.202;6.344;2022-08-19T04:18:39;75.83;;;60.17;;
9374;SDS011;4727;51.202;6.344;2022-08-19T04:21:07;81.17;;;62.37;;
9374;SDS011;4727;51.202;6.344;2022-08-19T04:23:33;74.83;;;59.93;;
9374;SDS011;4727;51.202;6.344;2022-08-19T04:26:03;81.33;;;61.83;;
9374;SDS011;4727;51.202;6.344;2022-08-19T04:28:28;73.00;;;57.87;;
9374;SDS011;4727;51.202;6.344;2022-08-19T04:30:54;81.50;;;60.47;;
9374;SDS011;4727;51.202;6.344;2022-08-19T04:33:21;80.97;;;60.03;;
9374;SDS011;4727;51.202;6.344;2022-08-19T04:35:49;80.87;;;59.40;;
9374;SDS011;4727;51.202;6.344;2022-08-19T04:38:17;83.37;;;60.00;;
9374;SDS011;4727;51.202;6.344;2022-08-19T04:40:46;81.97;;;59.87;;
9374;SDS011;4727;51.202;6.344;2022-08-19T04:43:33;76.50;;;57.83;;
9374;SDS011;4727;51.202;6.344;2022-08-19T04:46:06;79.50;;;59.33;;
9374;SDS011;4727;51.202;6.344;2022-08-19T04:48:34;78.73;;;57.73;;
9374;SDS011;4727;51.202;6.344;2022-08-19T04:51:00;75.67;;;57.63;;
9374;SDS011;4727;51.202;6.344;2022-08-19T04:53:26;78.80;;;57.87;;
9374;SDS011;4727;51.202;6.344;2022-08-19T04:55:55;74.17;;;56.03;;
9374;SDS011;4727;51.202;6.344;2022-08-19T04:58:23;76.30;;;56.57;;
9374;SDS011;4727;51.202;6.344;2022-08-19T05:00:50;75.17;;;55.87;;
9374;SDS011;4727;51.202;6.344;2022-08-19T05:03:16;70.83;;;54.83;;
9374;SDS011;4727;51.202;6.344;2022-08-19T05:05:43;73.83;;;56.23;;
9374;SDS011;4727;51.202;6.344;2022-08-19T05:08:09;73.43;;;56.07;;
9374;SDS011;4727;51.202;6.344;2022-08-19T05:10:39;72.80;;;55.90;;
9374;SDS011;4727;51.202;6.344;2022-08-19T05:13:05;72.83;;;55.17;;
9374;SDS011;4727;51.202;6.344;2022-08-19T05:15:31;68.30;;;54.23;;
9374;SDS011;4727;51.202;6.344;2022-08-19T05:17:57;65.40;;;52.60;;
9374;SDS011;4727;51.202;6.344;2022-08-19T05:20:41;71.60;;;52.70;;
9374;SDS011;4727;51.202;6.344;2022-08-19T05:23:25;68.50;;;54.20;;
9374;SDS011;4727;51.202;6.344;2022-08-19T05:25:51;61.53;;;50.87;;
9374;SDS011;4727;51.202;6.344;2022-08-19T05:28:18;62.63;;;51.67;;
9374;SDS011;4727;51.202;6.344;2022-08-19T05:30:45;66.80;;;53.40;;
9374;SDS011;4727;51.202;6.344;2022-08-19T05:33:11;62.00;;;52.97;;
9374;SDS011;4727;51.202;6.344;2022-08-19T05:35:37;63.93;;;51.20;;
9374;SDS011;4727;51.202;6.344;2022-08-19T05:38:04;68.33;;;53.97;;
9374;SDS011;4727;51.202;6.344;2022-08-19T05:40:33;65.23;;;51.47;;
9374;SDS011;4727;51.202;6.344;2022-08-19T05:43:01;63.60;;;52.43;;
9374;SDS011;4727;51.202;6.344;2022-08-19T05:45:27;65.20;;;53.20;;
9374;SDS011;4727;51.202;6.344;2022-08-19T05:47:53;69.37;;;54.97;;
9374;SDS011;4727;51.202;6.344;2022-08-19T05:50:19;68.67;;;54.73;;
9374;SDS011;4727;51.202;6.344;2022-08-19T05:52:46;65.07;;;53.57;;
9374;SDS011;4727;51.202;6.344;2022-08-19T05:55:11;70.87;;;56.23;;
9374;SDS011;4727;51.202;6.344;2022-08-19T05:57:37;67.43;;;52.20;;
9374;SDS011;4727;51.202;6.344;2022-08-19T06:00:04;64.93;;;55.23;;
9374;SDS011;4727;51.202;6.344;2022-08-19T06:02:34;65.20;;;53.97;;
9374;SDS011;4727;51.202;6.344;2022-08-19T06:05:00;69.47;;;55.50;;
9374;SDS011;4727;51.202;6.344;2022-08-19T06:07:27;68.33;;;53.13;;
9374;SDS011;4727;51.202;6.344;2022-08-19T06:09:53;66.70;;;54.33;;
9374;SDS011;4727;51.202;6.344;2022-08-19T06:12:19;63.70;;;52.07;;
9374;SDS011;4727;51.202;6.344;2022-08-19T06:14:51;66.80;;;54.93;;
9374;SDS011;4727;51.202;6.344;2022-08-19T06:17:19;65.37;;;54.13;;
9374;SDS011;4727;51.202;6.344;2022-08-19T06:19:46;74.97;;;56.53;;
9374;SDS011;4727;51.202;6.344;2022-08-19T06:22:11;68.27;;;54.33;;
9374;SDS011;4727;51.202;6.344;2022-08-19T06:24:38;67.43;;;56.13;;
9374;SDS011;4727;51.202;6.344;2022-08-19T06:27:03;68.77;;;57.23;;
9374;SDS011;4727;51.202;6.344;2022-08-19T06:29:30;72.83;;;57.30;;
9374;SDS011;4727;51.202;6.344;2022-08-19T06:31:58;78.77;;;59.90;;
9374;SDS011;4727;51.202;6.344;2022-08-19T06:34:25;77.30;;;58.67;;
9374;SDS011;4727;51.202;6.344;2022-08-19T06:36:53;76.80;;;59.70;;
9374;SDS011;4727;51.202;6.344;2022-08-19T06:39:21;79.70;;;61.67;;
9374;SDS011;4727;51.202;6.344;2022-08-19T06:41:50;74.43;;;60.27;;
9374;SDS011;4727;51.202;6.344;2022-08-19T06:44:21;76.97;;;59.60;;
9374;SDS011;4727;51.202;6.344;2022-08-19T06:46:48;77.07;;;58.27;;
9374;SDS011;4727;51.202;6.344;2022-08-19T06:49:14;81.23;;;61.93;;
9374;SDS011;4727;51.202;6.344;2022-08-19T06:51:41;81.90;;;61.47;;
9374;SDS011;4727;51.202;6.344;2022-08-19T06:54:08;82.90;;;61.47;;
9374;SDS011;4727;51.202;6.344;2022-08-19T06:56:35;86.40;;;64.60;;
9374;SDS011;4727;51.202;6.344;2022-08-19T06:59:05;80.80;;;62.10;;
9374;SDS011;4727;51.202;6.344;2022-08-19T07:01:39;87.03;;;62.30;;
9374;SDS011;4727;51.202;6.344;2022-08-19T07:04:11;79.50;;;61.30;;
9374;SDS011;4727;51.202;6.344;2022-08-19T07:06:38;85.97;;;64.67;;
9374;SDS011;4727;51.202;6.344;2022-08-19T07:09:05;80.20;;;58.57;;
9374;SDS011;4727;51.202;6.344;2022-08-19T07:11:31;79.27;;;59.17;;
9374;SDS011;4727;51.202;6.344;2022-08-19T07:13:57;72.43;;;58.57;;
9374;SDS011;4727;51.202;6.344;2022-08-19T07:16:23;70.60;;;54.23;;
9374;SDS011;4727;51.202;6.344;2022-08-19T07:18:50;66.87;;;52.97;;
9374;SDS011;4727;51.202;6.344;2022-08-19T07:21:21;66.53;;;52.47;;
9374;SDS011;4727;51.202;6.344;2022-08-19T07:23:49;61.73;;;51.47;;
9374;SDS011;4727;51.202;6.344;2022-08-19T07:26:21;68.40;;;51.10;;
9374;SDS011;4727;51.202;6.344;2022-08-19T07:28:57;57.00;;;47.50;;
9374;SDS011;4727;51.202;6.344;2022-08-19T07:31:25;58.27;;;48.80;;
9374;SDS011;4727;51.202;6.344;2022-08-19T07:33:52;53.93;;;46.60;;
9374;SDS011;4727;51.202;6.344;2022-08-19T07:36:21;55.17;;;48.13;;
9374;SDS011;4727;51.202;6.344;2022-08-19T07:38:50;56.30;;;47.23;;
9374;SDS011;4727;51.202;6.344;2022-08-19T07:41:19;51.13;;;45.10;;
9374;SDS011;4727;51.202;6.344;2022-08-19T07:43:47;53.07;;;45.60;;
9374;SDS011;4727;51.202;6.344;2022-08-19T07:46:14;54.57;;;44.90;;
9374;SDS011;4727;51.202;6.344;2022-08-19T07:48:41;50.40;;;43.57;;
9374;SDS011;4727;51.202;6.344;2022-08-19T07:51:09;53.30;;;43.40;;
9374;SDS011;4727;51.202;6.344;2022-08-19T07:53:36;51.03;;;45.47;;
9374;SDS011;4727;51.202;6.344;2022-08-19T07:56:02;49.00;;;43.63;;
9374;SDS011;4727;51.202;6.344;2022-08-19T07:58:29;53.30;;;44.73;;
9374;SDS011;4727;51.202;6.344;2022-08-19T08:00:57;50.20;;;44.73;;
9374;SDS011;4727;51.202;6.344;2022-08-19T08:03:24;51.07;;;45.13;;
9374;SDS011;4727;51.202;6.344;2022-08-19T08:06:10;48.23;;;42.83;;
9374;SDS011;4727;51.202;6.344;2022-08-19T08:08:55;47.50;;;41.20;;
9374;SDS011;4727;51.202;6.344;2022-08-19T08:11:44;47.13;;;40.20;;
9374;SDS011;4727;51.202;6.344;2022-08-19T08:14:18;41.43;;;37.03;;
9374;SDS011;4727;51.202;6.344;2022-08-19T08:16:47;43.10;;;38.57;;
9374;SDS011;4727;51.202;6.344;2022-08-19T08:19:15;42.23;;;37.60;;
9374;SDS011;4727;51.202;6.344;2022-08-19T08:21:42;44.17;;;39.67;;
9374;SDS011;4727;51.202;6.344;2022-08-19T08:24:08;43.83;;;39.00;;
9374;SDS011;4727;51.202;6.344;2022-08-19T08:26:34;43.97;;;39.50;;
9374;SDS011;4727;51.202;6.344;2022-08-19T08:29:00;42.07;;;37.07;;
9374;SDS011;4727;51.202;6.344;2022-08-19T08:31:26;40.27;;;35.97;;
9374;SDS011;4727;51.202;6.344;2022-08-19T08:33:53;35.10;;;31.50;;
9374;SDS011;4727;51.202;6.344;2022-08-19T08:36:19;33.00;;;29.70;;
9374;SDS011;4727;51.202;6.344;2022-08-19T08:38:44;32.30;;;29.07;;
9374;SDS011;4727;51.202;6.344;2022-08-19T08:41:28;36.90;;;33.10;;
9374;SDS011;4727;51.202;6.344;2022-08-19T08:44:02;34.20;;;30.60;;
9374;SDS011;4727;51.202;6.344;2022-08-19T08:46:42;28.77;;;25.90;;
9374;SDS011;4727;51.202;6.344;2022-08-19T08:51:41;26.67;;;23.93;;
9374;SDS011;4727;51.202;6.344;2022-08-19T08:54:10;25.70;;;23.17;;
9374;SDS011;4727;51.202;6.344;2022-08-19T08:56:39;20.93;;;18.17;;
9374;SDS011;4727;51.202;6.344;2022-08-19T08:59:17;19.23;;;17.17;;
9374;SDS011;4727;51.202;6.344;2022-08-19T09:01:46;41.60;;;19.83;;
9374;SDS011;4727;51.202;6.344;2022-08-19T09:04:13;31.67;;;17.07;;
9374;SDS011;4727;51.202;6.344;2022-08-19T09:06:54;28.77;;;16.20;;
9374;SDS011;4727;51.202;6.344;2022-08-19T09:17:13;11.70;;;10.60;;
9374;SDS011;4727;51.202;6.344;2022-08-19T09:19:49;13.03;;;11.73;;
9374;SDS011;4727;51.202;6.344;2022-08-19T09:22:21;13.60;;;12.20;;
9374;SDS011;4727;51.202;6.344;2022-08-19T09:24:50;16.27;;;14.63;;
9374;SDS011;4727;51.202;6.344;2022-08-19T09:27:19;14.70;;;12.80;;
9374;SDS011;4727;51.202;6.344;2022-08-19T09:29:46;16.83;;;15.03;;
9374;SDS011;4727;51.202;6.344;2022-08-19T09:32:13;17.90;;;16.10;;
9374;SDS011;4727;51.202;6.344;2022-08-19T09:34:39;16.13;;;14.47;;
9374;SDS011;4727;51.202;6.344;2022-08-19T09:37:05;18.77;;;16.87;;
9374;SDS011;4727;51.202;6.344;2022-08-19T09:39:31;17.73;;;15.83;;
9374;SDS011;4727;51.202;6.344;2022-08-19T09:41:56;18.57;;;16.30;;
9374;SDS011;4727;51.202;6.344;2022-08-19T09:44:22;23.13;;;20.10;;
9374;SDS011;4727;51.202;6.344;2022-08-19T09:46:48;20.33;;;18.33;;
9374;SDS011;4727;51.202;6.344;2022-08-19T09:49:18;19.90;;;18.02;;
9374;SDS011;4727;51.202;6.344;2022-08-19T09:51:49;20.07;;;18.17;;
9374;SDS011;4727;51.202;6.344;2022-08-19T09:54:15;21.37;;;19.20;;
9374;SDS011;4727;51.202;6.344;2022-08-19T09:56:41;19.30;;;17.40;;
9374;SDS011;4727;51.202;6.344;2022-08-19T09:59:08;20.17;;;18.17;;
9374;SDS011;4727;51.202;6.344;2022-08-19T10:01:34;19.17;;;17.35;;
9374;SDS011;4727;51.202;6.344;2022-08-19T10:04:00;20.98;;;19.02;;
9374;SDS011;4727;51.202;6.344;2022-08-19T10:06:27;21.95;;;19.70;;
9374;SDS011;4727;51.202;6.344;2022-08-19T10:08:56;24.17;;;21.87;;
9374;SDS011;4727;51.202;6.344;2022-08-19T10:11:22;22.60;;;20.40;;
9374;SDS011;4727;51.202;6.344;2022-08-19T10:13:48;22.40;;;20.40;;
9374;SDS011;4727;51.202;6.344;2022-08-19T10:16:15;24.23;;;20.47;;
9374;SDS011;4727;51.202;6.344;2022-08-19T10:18:44;25.50;;;20.10;;
9374;SDS011;4727;51.202;6.344;2022-08-19T10:23:36;24.23;;;21.83;;
9374;SDS011;4727;51.202;6.344;2022-08-19T10:26:04;23.33;;;21.23;;
9374;SDS011;4727;51.202;6.344;2022-08-19T10:28:34;24.53;;;22.23;;
9374;SDS011;4727;51.202;6.344;2022-08-19T10:31:09;24.07;;;21.53;;
9374;SDS011;4727;51.202;6.344;2022-08-19T10:33:36;19.92;;;18.02;;
9374;SDS011;4727;51.202;6.344;2022-08-19T10:36:04;21.55;;;19.55;;
9374;SDS011;4727;51.202;6.344;2022-08-19T10:38:33;21.02;;;19.02;;
9374;SDS011;4727;51.202;6.344;2022-08-19T10:41:12;22.30;;;20.00;;
9374;SDS011;4727;51.202;6.344;2022-08-19T10:43:43;20.77;;;18.60;;
9374;SDS011;4727;51.202;6.344;2022-08-19T10:46:11;17.63;;;15.97;;
9374;SDS011;4727;51.202;6.344;2022-08-19T10:48:38;18.92;;;17.05;;
9374;SDS011;4727;51.202;6.344;2022-08-19T10:51:04;17.55;;;15.80;;
9374;SDS011;4727;51.202;6.344;2022-08-19T10:53:49;17.93;;;16.03;;
9374;SDS011;4727;51.202;6.344;2022-08-19T10:56:15;15.85;;;14.45;;
9374;SDS011;4727;51.202;6.344;2022-08-19T10:59:00;17.02;;;15.45;;
9374;SDS011;4727;51.202;6.344;2022-08-19T11:01:27;14.70;;;13.40;;
9374;SDS011;4727;51.202;6.344;2022-08-19T11:03:55;17.95;;;16.27;;
9374;SDS011;4727;51.202;6.344;2022-08-19T11:06:22;16.45;;;14.82;;
9374;SDS011;4727;51.202;6.344;2022-08-19T11:08:50;14.38;;;13.07;;
9374;SDS011;4727;51.202;6.344;2022-08-19T11:11:19;13.50;;;12.20;;
9374;SDS011;4727;51.202;6.344;2022-08-19T11:13:46;15.10;;;13.80;;
9374;SDS011;4727;51.202;6.344;2022-08-19T11:16:13;13.80;;;12.57;;
9374;SDS011;4727;51.202;6.344;2022-08-19T11:18:42;14.65;;;13.40;;
9374;SDS011;4727;51.202;6.344;2022-08-19T11:21:23;15.70;;;14.10;;
9374;SDS011;4727;51.202;6.344;2022-08-19T11:23:58;14.02;;;12.65;;
9374;SDS011;4727;51.202;6.344;2022-08-19T11:26:28;11.63;;;10.40;;
9374;SDS011;4727;51.202;6.344;2022-08-19T11:28:55;9.75;;;8.95;;
9374;SDS011;4727;51.202;6.344;2022-08-19T11:31:23;11.52;;;10.32;;
9374;SDS011;4727;51.202;6.344;2022-08-19T11:33:50;9.73;;;8.82;;
9374;SDS011;4727;51.202;6.344;2022-08-19T11:36:16;10.00;;;9.10;;
9374;SDS011;4727;51.202;6.344;2022-08-19T11:38:42;11.55;;;10.55;;
9374;SDS011;4727;51.202;6.344;2022-08-19T11:41:09;10.57;;;9.57;;
9374;SDS011;4727;51.202;6.344;2022-08-19T11:43:35;9.73;;;8.45;;
9374;SDS011;4727;51.202;6.344;2022-08-19T11:46:05;11.40;;;9.60;;
9374;SDS011;4727;51.202;6.344;2022-08-19T11:48:32;13.10;;;11.80;;
9374;SDS011;4727;51.202;6.344;2022-08-19T11:50:59;12.27;;;10.68;;
9374;SDS011;4727;51.202;6.344;2022-08-19T11:53:30;10.93;;;10.02;;
9374;SDS011;4727;51.202;6.344;2022-08-19T11:55:55;12.25;;;11.07;;
9374;SDS011;4727;51.202;6.344;2022-08-19T11:58:21;11.10;;;10.07;;
9374;SDS011;4727;51.202;6.344;2022-08-19T12:00:47;11.00;;;9.88;;
9374;SDS011;4727;51.202;6.344;2022-08-19T12:03:13;9.32;;;8.52;;
9374;SDS011;4727;51.202;6.344;2022-08-19T12:05:39;9.50;;;8.60;;
9374;SDS011;4727;51.202;6.344;2022-08-19T12:08:06;9.15;;;8.35;;
9374;SDS011;4727;51.202;6.344;2022-08-19T12:10:33;8.27;;;7.60;;
9374;SDS011;4727;51.202;6.344;2022-08-19T12:12:59;9.38;;;8.57;;
9374;SDS011;4727;51.202;6.344;2022-08-19T12:15:25;10.05;;;9.02;;
9374;SDS011;4727;51.202;6.344;2022-08-19T12:17:54;11.10;;;8.80;;
9374;SDS011;4727;51.202;6.344;2022-08-19T12:20:22;9.05;;;8.15;;
9374;SDS011;4727;51.202;6.344;2022-08-19T12:22:49;8.50;;;7.60;;
9374;SDS011;4727;51.202;6.344;2022-08-19T12:25:15;8.07;;;7.47;;
9374;SDS011;4727;51.202;6.344;2022-08-19T12:27:42;7.70;;;6.97;;
9374;SDS011;4727;51.202;6.344;2022-08-19T12:30:09;7.03;;;6.43;;
9374;SDS011;4727;51.202;6.344;2022-08-19T12:32:36;7.75;;;7.05;;
9374;SDS011;4727;51.202;6.344;2022-08-19T12:35:02;7.10;;;6.50;;
9374;SDS011;4727;51.202;6.344;2022-08-19T12:37:28;7.53;;;6.82;;
9374;SDS011;4727;51.202;6.344;2022-08-19T12:39:54;7.40;;;6.55;;
9374;SDS011;4727;51.202;6.344;2022-08-19T12:42:20;7.97;;;7.28;;
9374;SDS011;4727;51.202;6.344;2022-08-19T12:44:47;7.63;;;7.03;;
9374;SDS011;4727;51.202;6.344;2022-08-19T12:47:13;6.80;;;6.30;;
9374;SDS011;4727;51.202;6.344;2022-08-19T12:49:39;6.13;;;5.53;;
9374;SDS011;4727;51.202;6.344;2022-08-19T12:52:05;6.50;;;6.10;;
9374;SDS011;4727;51.202;6.344;2022-08-19T12:54:33;5.55;;;5.00;;
9374;SDS011;4727;51.202;6.344;2022-08-19T12:57:00;5.47;;;4.97;;
9374;SDS011;4727;51.202;6.344;2022-08-19T12:59:29;6.43;;;5.82;;
9374;SDS011;4727;51.202;6.344;2022-08-19T13:01:55;5.10;;;4.68;;
9374;SDS011;4727;51.202;6.344;2022-08-19T13:04:20;6.30;;;5.70;;
9374;SDS011;4727;51.202;6.344;2022-08-19T13:06:46;5.38;;;4.82;;
9374;SDS011;4727;51.202;6.344;2022-08-19T13:09:11;5.72;;;4.50;;
9374;SDS011;4727;51.202;6.344;2022-08-19T13:11:37;5.82;;;4.68;;
9374;SDS011;4727;51.202;6.344;2022-08-19T13:14:03;6.50;;;5.05;;
9374;SDS011;4727;51.202;6.344;2022-08-19T13:16:29;5.88;;;5.22;;
9374;SDS011;4727;51.202;6.344;2022-08-19T13:18:55;5.35;;;4.82;;
9374;SDS011;4727;51.202;6.344;2022-08-19T13:21:23;5.53;;;4.97;;
9374;SDS011;4727;51.202;6.344;2022-08-19T13:23:51;5.75;;;4.43;;
9374;SDS011;4727;51.202;6.344;2022-08-19T13:26:17;4.80;;;4.40;;
9374;SDS011;4727;51.202;6.344;2022-08-19T13:28:44;5.10;;;4.60;;
9374;SDS011;4727;51.202;6.344;2022-08-19T13:31:30;5.85;;;4.95;;
9374;SDS011;4727;51.202;6.344;2022-08-19T13:34:18;5.35;;;4.85;;
9374;SDS011;4727;51.202;6.344;2022-08-19T13:36:52;4.85;;;4.38;;
9374;SDS011;4727;51.202;6.344;2022-08-19T13:39:18;5.68;;;4.88;;
9374;SDS011;4727;51.202;6.344;2022-08-19T13:41:45;4.80;;;4.40;;
9374;SDS011;4727;51.202;6.344;2022-08-19T13:44:15;4.25;;;3.95;;
9374;SDS011;4727;51.202;6.344;2022-08-19T13:46:43;4.50;;;4.05;;
9374;SDS011;4727;51.202;6.344;2022-08-19T13:49:10;4.50;;;4.20;;
9374;SDS011;4727;51.202;6.344;2022-08-19T13:51:38;5.25;;;4.85;;
9374;SDS011;4727;51.202;6.344;2022-08-19T13:54:07;5.80;;;4.78;;
9374;SDS011;4727;51.202;6.344;2022-08-19T13:56:34;4.95;;;4.03;;
9374;SDS011;4727;51.202;6.344;2022-08-19T13:59:04;4.88;;;4.38;;
9374;SDS011;4727;51.202;6.344;2022-08-19T14:01:29;4.78;;;4.38;;
9374;SDS011;4727;51.202;6.344;2022-08-19T14:03:55;5.18;;;4.68;;
9374;SDS011;4727;51.202;6.344;2022-08-19T14:06:21;5.38;;;4.88;;
9374;SDS011;4727;51.202;6.344;2022-08-19T14:08:47;5.00;;;4.60;;
9374;SDS011;4727;51.202;6.344;2022-08-19T14:11:14;5.00;;;4.60;;
9374;SDS011;4727;51.202;6.344;2022-08-19T14:13:39;5.68;;;4.40;;
9374;SDS011;4727;51.202;6.344;2022-08-19T14:16:09;5.50;;;5.00;;
9374;SDS011;4727;51.202;6.344;2022-08-19T14:18:36;5.40;;;5.00;;
9374;SDS011;4727;51.202;6.344;2022-08-19T14:21:02;6.25;;;5.75;;
9374;SDS011;4727;51.202;6.344;2022-08-19T14:23:29;7.25;;;5.78;;
9374;SDS011;4727;51.202;6.344;2022-08-19T14:26:03;8.15;;;6.05;;
9374;SDS011;4727;51.202;6.344;2022-08-19T14:28:30;6.85;;;6.25;;
9374;SDS011;4727;51.202;6.344;2022-08-19T14:30:55;6.30;;;5.70;;
9374;SDS011;4727;51.202;6.344;2022-08-19T14:33:21;5.95;;;5.35;;
9374;SDS011;4727;51.202;6.344;2022-08-19T14:35:47;5.57;;;5.18;;
9374;SDS011;4727;51.202;6.344;2022-08-19T14:38:16;6.38;;;5.88;;
9374;SDS011;4727;51.202;6.344;2022-08-19T14:40:43;5.82;;;5.32;;
9374;SDS011;4727;51.202;6.344;2022-08-19T14:43:10;6.90;;;5.43;;
9374;SDS011;4727;51.202;6.344;2022-08-19T14:45:37;5.53;;;5.03;;
9374;SDS011;4727;51.202;6.344;2022-08-19T14:48:04;4.72;;;4.32;;
9374;SDS011;4727;51.202;6.344;2022-08-19T14:50:30;5.05;;;4.75;;
9374;SDS011;4727;51.202;6.344;2022-08-19T14:53:00;7.07;;;5.88;;
9374;SDS011;4727;51.202;6.344;2022-08-19T14:55:29;5.05;;;4.72;;
9374;SDS011;4727;51.202;6.344;2022-08-19T14:57:54;5.38;;;4.93;;
9374;SDS011;4727;51.202;6.344;2022-08-19T15:00:21;4.85;;;4.50;;
9374;SDS011;4727;51.202;6.344;2022-08-19T15:02:48;6.50;;;5.18;;
9374;SDS011;4727;51.202;6.344;2022-08-19T15:05:14;5.45;;;5.03;;
9374;SDS011;4727;51.202;6.344;2022-08-19T15:07:41;4.70;;;4.15;;
9374;SDS011;4727;51.202;6.344;2022-08-19T15:10:07;4.70;;;4.30;;